Home   Weather   USA   Baton Rouge   Past weeks
Flag for USA

Past Weather in Baton Rouge, Louisiana, USA — June 2020

Currently: 77 °F. Light rain. Passing clouds. (Weather station: Baton Rouge Metropolitan - Ryan Field, USA). See more current weather

June 2020 Weather in Baton Rouge — Graph

°F

High & Low Weather Summary for June 2020

 TemperatureHumidityPressure
High93 °F (Jun 15, 2:53 pm)97% (Jun 22, 10:53 pm)30.21 "Hg (Jun 22, 10:53 pm)
Low64 °F (Jun 17, 4:53 am)28% (Jun 18, 5:53 pm)29.38 "Hg (Jun 8, 1:53 am)
Average80 °F74%29.97 "Hg
* Reported Jun 1 12:53 am — Jun 30 11:53 pm, Baton Rouge. Weather by CustomWeather, © 2024

Note: Actual official high and low records may vary slightly from our data, if they occured in-between our weather recording intervals... More about our weather records

Baton Rouge Weather History for June 1, 2020

Scroll right to see more
 ConditionsComfort  
Time TempWeatherWind HumidityBarometerVisibility
12:53 am
Mon, Jun 1
73 °FClear.5 mph76%30.08 "Hg10 mi
1:53 am72 °FClear.6 mph76%30.07 "Hg10 mi
2:53 am71 °FClear.3 mph78%30.07 "Hg10 mi
3:53 am70 °FClear.5 mph81%30.07 "Hg10 mi
4:53 am70 °FClear.7 mph79%30.07 "Hg10 mi
5:53 am69 °FClear.3 mph79%30.08 "Hg10 mi
6:53 am70 °FSunny.7 mph76%30.09 "Hg10 mi
7:53 am73 °FSunny.9 mph69%30.11 "Hg10 mi
8:53 am77 °FSunny.6 mph62%30.12 "Hg10 mi
9:53 am80 °FSunny.7 mph56%30.13 "Hg10 mi
10:53 am82 °FSunny.6 mph55%30.13 "Hg10 mi
11:53 am82 °FScattered clouds.5 mph55%30.13 "Hg10 mi
12:53 pm84 °FSunny.3 mph51%30.11 "Hg10 mi
1:53 pm85 °FSunny.3 mph50%30.09 "Hg10 mi
2:53 pm88 °FSunny.3 mph46%30.08 "Hg10 mi
3:53 pm87 °FSunny.7 mph46%30.07 "Hg10 mi
4:53 pm85 °FSunny.5 mph50%30.06 "Hg10 mi
5:53 pm84 °FSunny.5 mph53%30.06 "Hg10 mi
6:53 pm82 °FSunny.5 mph58%30.06 "Hg10 mi
7:53 pm80 °FPassing clouds.No wind69%30.06 "Hg10 mi
8:53 pm78 °FClear.No wind74%30.06 "Hg10 mi
9:53 pm77 °FClear.No wind79%30.08 "Hg10 mi
10:53 pm77 °FClear.3 mph74%30.09 "Hg10 mi
11:53 pm75 °FClear.6 mph76%30.08 "Hg10 mi
Weather by CustomWeather, © 2024

See weather overview